createdAt,value
2019-04-05T00:00:00.751Z,19.90
2019-04-05T00:02:28.327Z,17.87
2019-04-05T00:04:55.889Z,18.65
2019-04-05T00:07:23.328Z,15.20
2019-04-05T00:09:51.219Z,14.40
2019-04-05T00:12:18.642Z,13.45
2019-04-05T00:14:46.211Z,17.40
2019-04-05T00:17:13.557Z,13.15
2019-04-05T00:19:41.113Z,15.63
2019-04-05T00:22:08.641Z,16.23
2019-04-05T00:24:36.423Z,14.33
2019-04-05T00:27:04.228Z,11.93
2019-04-05T00:29:32.363Z,17.92
2019-04-05T00:31:59.842Z,16.70
2019-04-05T00:34:27.252Z,16.30
2019-04-05T00:36:54.756Z,15.00
2019-04-05T00:39:22.411Z,15.15
2019-04-05T00:41:49.874Z,14.30
2019-04-05T00:44:17.322Z,16.17
2019-04-05T00:46:44.953Z,15.60
2019-04-05T00:49:12.507Z,16.25
2019-04-05T00:51:39.961Z,13.58
2019-04-05T00:54:07.702Z,16.62
2019-04-05T00:56:35.348Z,15.15
2019-04-05T00:59:02.788Z,15.93
2019-04-05T01:01:30.563Z,21.33
2019-04-05T01:03:58.101Z,17.90
2019-04-05T01:06:25.452Z,15.45
2019-04-05T01:08:53.175Z,15.88
2019-04-05T01:11:20.725Z,17.02
2019-04-05T01:13:48.736Z,16.10
2019-04-05T01:16:16.234Z,14.03
2019-04-05T01:18:43.793Z,14.55
2019-04-05T01:21:13.605Z,11.97
2019-04-05T01:23:41.523Z,14.03
2019-04-05T01:26:09.342Z,12.78
2019-04-05T01:28:36.701Z,12.03
2019-04-05T01:31:04.332Z,15.05
2019-04-05T01:33:31.750Z,11.00
2019-04-05T01:35:59.065Z,10.98
2019-04-05T01:38:26.574Z,14.83
2019-04-05T01:40:55.854Z,12.90
2019-04-05T01:43:23.284Z,13.00
2019-04-05T01:45:54.035Z,11.65
2019-04-05T01:48:20.433Z,13.45
2019-04-05T01:50:48.163Z,17.15
2019-04-05T01:53:15.601Z,15.10
2019-04-05T01:55:43.383Z,14.13
2019-04-05T01:58:11.195Z,13.32
2019-04-05T02:00:38.587Z,14.28
2019-04-05T02:03:05.941Z,13.22
2019-04-05T02:05:33.404Z,13.62
2019-04-05T02:08:00.765Z,16.05
2019-04-05T02:10:28.486Z,12.33
2019-04-05T02:12:55.926Z,14.78
2019-04-05T02:15:26.435Z,14.38
2019-04-05T02:17:54.235Z,13.90
2019-04-05T02:20:21.652Z,13.48
2019-04-05T02:22:49.409Z,15.75
2019-04-05T02:25:17.332Z,13.90
2019-04-05T02:27:44.848Z,12.70
2019-04-05T02:30:12.799Z,17.48
2019-04-05T02:32:40.510Z,11.68
2019-04-05T02:35:08.332Z,16.00
2019-04-05T02:37:36.271Z,12.00
2019-04-05T02:40:05.940Z,14.43
2019-04-05T02:42:33.558Z,14.33
2019-04-05T02:45:01.481Z,13.13
2019-04-05T02:47:29.397Z,13.68
2019-04-05T02:49:57.621Z,12.37
2019-04-05T02:52:27.526Z,12.28
2019-04-05T02:54:55.749Z,14.50
2019-04-05T02:57:24.838Z,14.40
2019-04-05T02:59:53.093Z,11.97
2019-04-05T03:02:20.724Z,10.32
2019-04-05T03:04:48.413Z,13.13
2019-04-05T03:07:16.222Z,11.93
2019-04-05T03:09:44.453Z,12.00
2019-04-05T03:12:12.365Z,13.30
2019-04-05T03:14:40.595Z,9.38
2019-04-05T03:17:08.995Z,9.45
2019-04-05T03:19:37.949Z,12.65
2019-04-05T03:22:08.943Z,10.08
2019-04-05T03:24:39.183Z,9.98
2019-04-05T03:27:15.725Z,8.90
2019-04-05T03:29:43.691Z,10.43
2019-04-05T03:32:11.586Z,9.28
2019-04-05T03:34:39.438Z,9.75
2019-04-05T03:37:07.414Z,9.83
2019-04-05T03:39:34.815Z,10.35
2019-04-05T03:42:02.214Z,9.23
2019-04-05T03:44:30.249Z,11.70
2019-04-05T03:46:58.233Z,9.65
2019-04-05T03:49:25.983Z,12.53
2019-04-05T03:51:53.844Z,11.30
2019-04-05T03:54:21.813Z,10.85
2019-04-05T03:56:49.938Z,11.50
2019-04-05T03:59:17.380Z,10.80
2019-04-05T04:01:45.323Z,10.32
2019-04-05T04:04:12.933Z,11.70
2019-04-05T04:06:40.486Z,10.93
2019-04-05T04:09:08.550Z,11.97
2019-04-05T04:11:36.833Z,10.50
2019-04-05T04:14:04.949Z,11.60
2019-04-05T04:16:33.062Z,13.48
2019-04-05T04:19:00.914Z,12.85
2019-04-05T04:21:35.529Z,12.55
2019-04-05T04:24:03.594Z,14.20
2019-04-05T04:26:32.212Z,14.00
2019-04-05T04:28:59.618Z,14.40
2019-04-05T04:31:27.595Z,11.93
2019-04-05T04:33:55.794Z,15.08
2019-04-05T04:36:23.898Z,15.45
2019-04-05T04:38:51.731Z,14.55
2019-04-05T04:41:19.461Z,14.55
2019-04-05T04:43:47.622Z,14.68
2019-04-05T04:46:15.076Z,14.85
2019-04-05T04:48:43.824Z,16.45
2019-04-05T04:51:11.864Z,13.70
2019-04-05T04:53:40.226Z,15.63
2019-04-05T04:56:07.726Z,15.32
2019-04-05T04:58:35.640Z,13.28
2019-04-05T05:01:03.636Z,14.95
2019-04-05T05:03:31.520Z,14.23
2019-04-05T05:05:59.178Z,14.93
2019-04-05T05:08:27.114Z,16.37
2019-04-05T05:10:55.049Z,15.95
2019-04-05T05:13:22.460Z,13.28
2019-04-05T05:15:50.402Z,13.85
2019-04-05T05:18:18.460Z,16.00
2019-04-05T05:20:46.110Z,13.45
2019-04-05T05:23:13.932Z,14.73
2019-04-05T05:25:41.712Z,19.05
2019-04-05T05:28:09.504Z,12.53
2019-04-05T05:30:36.925Z,14.07
2019-04-05T05:33:04.843Z,15.43
2019-04-05T05:35:32.654Z,17.48
2019-04-05T05:38:00.140Z,16.57
2019-04-05T05:40:34.887Z,14.20
2019-04-05T05:42:57.040Z,16.97
2019-04-05T05:45:24.659Z,16.52
2019-04-05T05:47:52.656Z,15.75
2019-04-05T05:50:20.229Z,15.88
2019-04-05T05:52:48.890Z,13.43
2019-04-05T05:55:16.797Z,14.93
2019-04-05T05:57:44.288Z,13.55
2019-04-05T06:00:13.069Z,11.90
2019-04-05T06:02:40.603Z,14.55
2019-04-05T06:05:08.115Z,14.35
2019-04-05T06:07:35.550Z,10.05
2019-04-05T06:10:03.314Z,8.28
2019-04-05T06:12:30.800Z,9.48
2019-04-05T06:14:58.395Z,11.97
2019-04-05T06:17:25.833Z,9.58
2019-04-05T06:19:53.159Z,11.18
2019-04-05T06:22:20.740Z,11.57
2019-04-05T06:24:48.462Z,10.32
2019-04-05T06:27:16.075Z,12.00
2019-04-05T06:29:43.402Z,11.40
2019-04-05T06:32:10.610Z,10.15
2019-04-05T06:34:37.936Z,9.63
2019-04-05T06:37:05.584Z,10.00
2019-04-05T06:39:32.906Z,9.15
2019-04-05T06:42:00.716Z,12.30
2019-04-05T06:44:28.268Z,11.90
2019-04-05T06:46:55.669Z,9.03
2019-04-05T06:49:22.988Z,11.28
2019-04-05T06:51:50.444Z,11.48
2019-04-05T06:54:17.939Z,9.45
2019-04-05T06:56:45.386Z,9.70
2019-04-05T06:59:32.318Z,10.63
2019-04-05T07:01:59.822Z,10.38
2019-04-05T07:04:27.310Z,10.75
2019-04-05T07:06:54.855Z,11.85
2019-04-05T07:09:22.284Z,12.85
2019-04-05T07:11:49.964Z,12.70
2019-04-05T07:14:17.701Z,8.68
2019-04-05T07:16:45.215Z,9.15
2019-04-05T07:19:13.138Z,10.20
2019-04-05T07:21:40.612Z,12.18
2019-04-05T07:24:10.268Z,10.93
2019-04-05T07:26:38.122Z,10.88
2019-04-05T07:29:06.091Z,9.70
2019-04-05T07:31:33.820Z,10.55
2019-04-05T07:34:01.270Z,12.37
2019-04-05T07:36:28.938Z,11.65
2019-04-05T07:38:56.336Z,10.35
2019-04-05T07:41:23.789Z,11.60
2019-04-05T07:43:51.251Z,12.25
2019-04-05T07:46:18.955Z,10.93
2019-04-05T07:48:46.333Z,13.15
2019-04-05T07:51:13.782Z,12.53
2019-04-05T07:53:41.376Z,12.25
2019-04-05T07:56:08.912Z,9.50
2019-04-05T07:58:36.330Z,15.13
2019-04-05T08:01:05.112Z,11.93
2019-04-05T08:03:32.600Z,13.58
2019-04-05T08:06:00.000Z,10.65
2019-04-05T08:08:56.314Z,13.35
2019-04-05T08:11:25.307Z,12.75
2019-04-05T08:13:54.888Z,13.70
2019-04-05T08:16:22.205Z,10.45
2019-04-05T08:18:57.589Z,14.43
2019-04-05T08:21:19.081Z,12.10
2019-04-05T08:23:46.432Z,13.03
2019-04-05T08:26:13.942Z,12.05
2019-04-05T08:28:41.832Z,11.45
2019-04-05T08:31:10.651Z,14.83
2019-04-05T08:33:38.765Z,11.38
2019-04-05T08:36:06.526Z,14.30
2019-04-05T08:38:34.070Z,13.83
2019-04-05T08:41:02.012Z,11.05
2019-04-05T08:43:29.438Z,13.03
2019-04-05T08:46:16.398Z,11.45
2019-04-05T08:48:43.776Z,13.18
2019-04-05T08:51:11.620Z,13.10
2019-04-05T08:53:39.337Z,15.13
2019-04-05T08:56:06.877Z,14.07
2019-04-05T08:58:34.557Z,11.60
2019-04-05T09:01:02.199Z,13.15
2019-04-05T09:03:29.828Z,13.38
2019-04-05T09:05:57.247Z,13.90
2019-04-05T09:08:25.053Z,12.93
2019-04-05T09:10:54.661Z,13.43
2019-04-05T09:13:22.144Z,12.85
2019-04-05T09:15:50.119Z,11.10
2019-04-05T09:18:17.734Z,10.85
2019-04-05T09:20:46.155Z,21.45
2019-04-05T09:23:14.590Z,21.37
2019-04-05T09:25:42.370Z,12.73
2019-04-05T09:28:09.827Z,11.18
2019-04-05T09:30:37.416Z,11.68
2019-04-05T09:33:04.858Z,10.38
2019-04-05T09:35:32.387Z,12.68
2019-04-05T09:38:00.029Z,15.45
2019-04-05T09:40:27.563Z,10.93
2019-04-05T09:42:55.178Z,13.05
2019-04-05T09:45:22.687Z,13.30
2019-04-05T09:47:50.492Z,11.65
2019-04-05T09:50:18.331Z,10.23
2019-04-05T09:52:45.962Z,9.28
2019-04-05T09:55:13.481Z,8.83
2019-04-05T09:57:41.102Z,8.18
2019-04-05T10:00:15.828Z,9.80
2019-04-05T10:02:44.105Z,11.18
2019-04-05T10:05:11.679Z,12.70
2019-04-05T10:07:53.811Z,10.60
2019-04-05T10:10:08.918Z,10.70
2019-04-05T10:12:36.438Z,10.88
2019-04-05T10:15:04.758Z,12.70
2019-04-05T10:17:32.449Z,10.48
2019-04-05T10:20:00.172Z,16.35
2019-04-05T10:22:27.758Z,9.90
2019-04-05T10:24:55.290Z,9.68
2019-04-05T10:27:23.244Z,8.35
2019-04-05T10:29:51.079Z,9.03
2019-04-05T10:32:18.471Z,8.48
2019-04-05T10:34:46.203Z,11.57
2019-04-05T10:37:14.057Z,6.85
2019-04-05T10:39:41.632Z,10.30
2019-04-05T10:42:32.507Z,12.68
2019-04-05T10:45:00.493Z,7.67
2019-04-05T10:47:29.031Z,8.53
2019-04-05T10:50:02.903Z,9.38
2019-04-05T10:52:25.841Z,7.58
2019-04-05T10:54:53.943Z,8.90
2019-04-05T10:57:22.022Z,8.20
2019-04-05T10:59:49.497Z,10.78
2019-04-05T11:02:17.571Z,7.97
2019-04-05T11:04:45.096Z,7.62
2019-04-05T11:07:12.770Z,8.73
2019-04-05T11:09:40.750Z,11.25
2019-04-05T11:12:08.831Z,7.83
2019-04-05T11:14:36.410Z,8.00
2019-04-05T11:17:05.001Z,8.03
2019-04-05T11:19:36.216Z,13.78
2019-04-05T11:22:02.061Z,7.08
2019-04-05T11:24:29.519Z,7.58
2019-04-05T11:26:57.154Z,8.70
2019-04-05T11:29:26.014Z,8.03
2019-04-05T11:31:57.196Z,5.87
2019-04-05T11:34:23.544Z,7.12
2019-04-05T11:36:51.303Z,8.38
2019-04-05T11:39:19.183Z,9.03
2019-04-05T11:41:49.060Z,9.18
2019-04-05T11:44:16.966Z,9.43
2019-04-05T11:46:44.422Z,6.58
2019-04-05T11:49:13.306Z,8.88
2019-04-05T11:51:43.151Z,8.00
2019-04-05T11:54:11.755Z,10.03
2019-04-05T11:56:39.995Z,7.65
2019-04-05T11:59:13.404Z,8.40
2019-04-05T12:01:49.174Z,7.72
2019-04-05T12:04:16.660Z,7.20
2019-04-05T12:06:44.038Z,5.93
2019-04-05T12:09:11.570Z,4.70
2019-04-05T12:11:39.035Z,7.83
2019-04-05T12:14:06.413Z,6.70
2019-04-05T12:16:36.045Z,7.37
2019-04-05T12:19:04.835Z,6.33
2019-04-05T12:21:34.814Z,5.83
2019-04-05T12:24:03.160Z,7.10
2019-04-05T12:26:32.416Z,6.23
2019-04-05T12:29:00.472Z,8.00
2019-04-05T12:31:28.050Z,8.97
2019-04-05T12:33:55.424Z,6.17
2019-04-05T12:36:23.116Z,7.50
2019-04-05T12:38:50.897Z,7.23
2019-04-05T12:41:20.181Z,9.33
2019-04-05T12:43:50.664Z,8.37
2019-04-05T12:46:16.864Z,7.73
2019-04-05T12:48:46.339Z,7.53
2019-04-05T12:51:15.556Z,8.57
2019-04-05T12:53:42.944Z,9.67
2019-04-05T12:56:10.421Z,7.67
2019-04-05T12:58:37.913Z,7.83
2019-04-05T13:01:08.135Z,8.63
2019-04-05T13:03:35.108Z,7.87
2019-04-05T13:06:02.968Z,6.58
2019-04-05T13:08:30.592Z,7.80
2019-04-05T13:10:58.474Z,8.38
2019-04-05T13:13:27.544Z,7.90
2019-04-05T13:15:55.549Z,8.13
2019-04-05T13:18:25.178Z,7.40
2019-04-05T13:20:52.284Z,8.78
2019-04-05T13:23:20.153Z,7.80
2019-04-05T13:25:47.517Z,7.28
2019-04-05T13:28:18.631Z,7.78
2019-04-05T13:30:44.380Z,6.95
2019-04-05T13:33:12.626Z,9.08
2019-04-05T13:35:40.400Z,6.45
2019-04-05T13:38:07.866Z,5.78
2019-04-05T13:40:37.026Z,6.78
2019-04-05T13:43:05.301Z,8.50
2019-04-05T13:45:34.064Z,7.58
2019-04-05T13:48:01.853Z,8.60
2019-04-05T13:50:29.483Z,8.28
2019-04-05T13:52:57.465Z,7.05
2019-04-05T13:55:25.484Z,8.83
2019-04-05T13:57:53.402Z,8.63
2019-04-05T14:00:21.123Z,7.90
2019-04-05T14:02:50.833Z,7.58
2019-04-05T14:05:18.041Z,6.53
2019-04-05T14:07:45.701Z,9.03
2019-04-05T14:10:13.375Z,9.48
2019-04-05T14:12:41.028Z,11.48
2019-04-05T14:15:11.257Z,7.95
2019-04-05T14:17:38.493Z,9.30
2019-04-05T14:20:08.964Z,6.85
2019-04-05T14:22:36.214Z,7.65
2019-04-05T14:25:04.898Z,7.97
2019-04-05T14:27:34.908Z,8.75
2019-04-05T14:30:03.168Z,7.78
2019-04-05T14:32:30.882Z,9.28
2019-04-05T14:34:58.272Z,10.70
2019-04-05T14:37:26.201Z,9.98
2019-04-05T14:39:54.191Z,11.88
2019-04-05T14:42:22.057Z,9.75
2019-04-05T14:44:49.636Z,11.35
2019-04-05T14:47:19.772Z,8.48
2019-04-05T14:49:46.861Z,14.55
2019-04-05T14:52:14.489Z,10.18
2019-04-05T14:54:43.339Z,8.00
2019-04-05T14:57:10.782Z,10.00
2019-04-05T14:59:38.418Z,8.73
2019-04-05T15:02:06.046Z,11.28
2019-04-05T15:04:33.637Z,9.63
2019-04-05T15:07:01.446Z,7.83
2019-04-05T15:09:29.123Z,10.72
2019-04-05T15:11:58.628Z,12.43
2019-04-05T15:14:25.886Z,8.30
2019-04-05T15:16:53.396Z,12.65
2019-04-05T15:19:20.901Z,12.88
2019-04-05T15:21:48.325Z,9.68
2019-04-05T15:24:17.184Z,11.73
2019-04-05T15:26:44.649Z,10.03
2019-04-05T15:29:12.145Z,10.25
2019-04-05T15:31:41.304Z,10.60
2019-04-05T15:34:09.268Z,10.40
2019-04-05T15:36:36.758Z,10.98
2019-04-05T15:39:07.651Z,10.25
2019-04-05T15:41:35.146Z,9.95
2019-04-05T15:44:05.162Z,10.30
2019-04-05T15:46:31.928Z,11.30
2019-04-05T15:48:59.331Z,13.05
2019-04-05T15:51:27.245Z,10.85
2019-04-05T15:53:54.739Z,7.85
2019-04-05T15:56:22.267Z,12.37
2019-04-05T15:58:52.290Z,11.63
2019-04-05T16:01:19.339Z,11.25
2019-04-05T16:03:47.135Z,12.53
2019-04-05T16:06:14.837Z,14.18
2019-04-05T16:08:42.434Z,10.13
2019-04-05T16:11:10.389Z,10.60
2019-04-05T16:13:37.975Z,10.80
2019-04-05T16:16:05.424Z,11.93
2019-04-05T16:18:33.236Z,12.03
2019-04-05T16:21:00.949Z,11.55
2019-04-05T16:23:28.704Z,11.65
2019-04-05T16:25:56.181Z,10.50
2019-04-05T16:28:25.644Z,11.45
2019-04-05T16:30:53.555Z,10.03
2019-04-05T16:33:21.151Z,11.57
2019-04-05T16:35:48.744Z,12.18
2019-04-05T16:38:16.357Z,9.28
2019-04-05T16:40:44.120Z,12.60
2019-04-05T16:43:11.637Z,11.08
2019-04-05T16:45:39.177Z,10.75
2019-04-05T16:48:06.861Z,11.88
2019-04-05T16:50:34.505Z,9.78
2019-04-05T16:53:02.163Z,9.80
2019-04-05T16:55:29.741Z,11.33
2019-04-05T16:57:57.915Z,10.65
2019-04-05T17:00:25.314Z,8.60
2019-04-05T17:02:53.061Z,9.30
2019-04-05T17:05:20.419Z,11.35
2019-04-05T17:07:48.318Z,10.50
2019-04-05T17:10:16.135Z,11.40
2019-04-05T17:12:43.725Z,10.18
2019-04-05T17:15:11.725Z,9.98
2019-04-05T17:17:39.490Z,9.83
2019-04-05T17:20:07.514Z,9.93
2019-04-05T17:22:35.476Z,12.13
2019-04-05T17:25:03.197Z,9.73
2019-04-05T17:27:30.860Z,9.05
2019-04-05T17:29:58.434Z,11.90
2019-04-05T17:32:26.129Z,11.22
2019-04-05T17:34:54.035Z,10.80
2019-04-05T17:37:21.825Z,9.83
2019-04-05T17:39:49.275Z,13.60
2019-04-05T17:42:16.753Z,8.28
2019-04-05T17:44:44.752Z,10.25
2019-04-05T17:47:12.277Z,11.65
2019-04-05T17:49:40.289Z,10.63
2019-04-05T17:52:08.153Z,10.00
2019-04-05T17:54:35.773Z,9.73
2019-04-05T17:57:03.268Z,13.88
2019-04-05T17:59:30.909Z,12.15
2019-04-05T18:01:58.273Z,12.45
2019-04-05T18:04:25.914Z,10.32
2019-04-05T18:06:53.962Z,11.68
2019-04-05T18:09:21.460Z,10.98
2019-04-05T18:11:49.028Z,10.50
2019-04-05T18:14:16.478Z,10.18
2019-04-05T18:16:44.441Z,13.28
2019-04-05T18:19:12.152Z,12.93
2019-04-05T18:21:39.845Z,11.48
2019-04-05T18:24:07.615Z,13.15
2019-04-05T18:26:35.437Z,9.90
2019-04-05T18:29:03.256Z,10.88
2019-04-05T18:31:30.929Z,9.90
2019-04-05T18:33:58.600Z,13.43
2019-04-05T18:36:26.345Z,10.75
2019-04-05T18:38:53.853Z,12.20
2019-04-05T18:41:21.630Z,10.75
2019-04-05T18:43:49.959Z,11.95
2019-04-05T18:46:17.720Z,10.68
2019-04-05T18:48:45.336Z,12.37
2019-04-05T18:51:13.207Z,12.20
2019-04-05T18:53:41.069Z,11.95
2019-04-05T18:56:08.791Z,11.48
2019-04-05T18:58:36.536Z,14.28
2019-04-05T19:01:04.751Z,13.28
2019-04-05T19:03:33.023Z,11.38
2019-04-05T19:06:00.983Z,14.47
2019-04-05T19:08:39.027Z,16.27
2019-04-05T19:10:58.011Z,11.38
2019-04-05T19:13:25.591Z,13.18
2019-04-05T19:15:53.148Z,13.93
2019-04-05T19:18:21.112Z,12.40
2019-04-05T19:20:48.668Z,12.43
2019-04-05T19:23:16.570Z,15.15
2019-04-05T19:25:46.612Z,13.80
2019-04-05T19:28:14.135Z,13.25
2019-04-05T19:50:40.393Z,15.30
2019-04-05T19:53:08.844Z,16.93
2019-04-05T19:55:36.605Z,15.60
2019-04-05T19:58:04.479Z,16.20
2019-04-05T20:00:32.943Z,17.17
2019-04-05T20:03:00.538Z,17.85
2019-04-05T20:05:28.169Z,16.10
2019-04-05T20:07:56.770Z,18.85
2019-04-05T20:10:24.864Z,18.95
2019-04-05T20:12:53.157Z,18.23
2019-04-05T20:15:21.473Z,25.35
2019-04-05T20:17:50.428Z,20.05
2019-04-05T20:20:18.757Z,43.20
2019-04-05T20:22:47.545Z,43.75
2019-04-05T20:25:15.802Z,26.33
2019-04-05T20:27:44.503Z,24.05
2019-04-05T20:30:13.453Z,21.95
2019-04-05T20:32:41.619Z,24.00
2019-04-05T20:35:10.781Z,27.77
2019-04-05T20:37:40.190Z,21.60
2019-04-05T20:40:08.608Z,20.75
2019-04-05T20:42:36.522Z,22.07
2019-04-05T20:45:04.522Z,22.17
2019-04-05T20:47:32.110Z,21.42
2019-04-05T20:49:59.830Z,22.22
2019-04-05T20:52:29.013Z,21.55
2019-04-05T20:54:56.977Z,19.48
2019-04-05T20:57:25.638Z,21.55
2019-04-05T20:59:53.858Z,27.95
2019-04-05T21:02:22.245Z,31.10
2019-04-05T21:04:49.756Z,48.50
2019-04-05T21:07:17.503Z,74.22
2019-04-05T21:09:45.625Z,70.60
2019-04-05T21:12:14.209Z,50.00
2019-04-05T21:14:42.392Z,48.75
2019-04-05T21:17:10.791Z,41.48
2019-04-05T21:19:38.721Z,36.33
2019-04-05T21:22:06.674Z,34.92
2019-04-05T21:24:36.387Z,34.27
2019-04-05T21:27:04.365Z,33.85
2019-04-05T21:29:31.779Z,30.80
2019-04-05T21:31:59.106Z,32.98
2019-04-05T21:34:26.538Z,24.50
2019-04-05T21:36:53.840Z,25.92
2019-04-05T21:39:21.205Z,19.45
2019-04-05T21:41:49.117Z,34.53
2019-04-05T21:44:16.579Z,32.83
2019-04-05T21:46:44.441Z,24.18
2019-04-05T21:49:11.863Z,29.40
2019-04-05T21:51:39.164Z,27.70
2019-04-05T21:54:06.554Z,25.12
2019-04-05T21:56:34.116Z,35.48
2019-04-05T21:59:02.083Z,32.13
2019-04-05T22:01:29.783Z,36.20
2019-04-05T22:03:57.505Z,31.20
2019-04-05T22:06:25.235Z,32.80
2019-04-05T22:08:52.672Z,43.90
2019-04-05T22:11:20.186Z,79.62
2019-04-05T22:13:47.793Z,58.45
2019-04-05T22:16:15.355Z,56.83
2019-04-05T22:18:43.088Z,43.80
2019-04-05T22:21:10.998Z,46.48
2019-04-05T22:23:38.472Z,34.38
2019-04-05T22:26:05.995Z,40.63
2019-04-05T22:28:33.325Z,33.73
2019-04-05T22:31:00.881Z,29.72
2019-04-05T22:33:28.210Z,36.65
2019-04-05T22:35:55.651Z,41.77
2019-04-05T22:38:23.076Z,37.30
2019-04-05T22:40:50.516Z,38.13
2019-04-05T22:43:18.160Z,27.45
2019-04-05T22:45:46.012Z,22.45
2019-04-05T22:48:13.769Z,19.48
2019-04-05T22:50:41.301Z,24.72
2019-04-05T22:53:08.736Z,63.92
2019-04-05T22:55:36.289Z,68.90
2019-04-05T22:58:03.578Z,59.30
2019-04-05T23:00:30.992Z,44.20
2019-04-05T23:02:58.730Z,42.88
2019-04-05T23:05:26.180Z,34.15
2019-04-05T23:07:53.645Z,37.33
2019-04-05T23:10:21.607Z,31.75
2019-04-05T23:12:49.043Z,36.00
2019-04-05T23:15:16.397Z,29.48
2019-04-05T23:17:44.243Z,30.60
2019-04-05T23:20:11.673Z,24.95
2019-04-05T23:22:39.052Z,20.12
2019-04-05T23:25:07.309Z,18.73
2019-04-05T23:27:35.081Z,17.10
2019-04-05T23:30:04.277Z,17.20
2019-04-05T23:32:32.282Z,16.55
2019-04-05T23:34:59.733Z,17.73
2019-04-05T23:37:27.465Z,18.35
2019-04-05T23:39:55.218Z,15.78
2019-04-05T23:42:22.714Z,20.55
2019-04-05T23:44:50.256Z,14.07
2019-04-05T23:47:17.977Z,17.50
2019-04-05T23:49:45.651Z,15.78
2019-04-05T23:52:13.138Z,15.63
2019-04-05T23:54:40.705Z,19.23
2019-04-05T23:57:08.200Z,21.97
2019-04-05T23:59:36.123Z,17.00
